Time;durP1;ratioP1;P1;durP2;ratioP2;P2;SDS_P1;SDS_P2;PMS_P1;PMS_P2;Temp;Humidity;BMP_temperature;BMP_pressure;BME280_temperature;BME280_humidity;BME280_pressure;Samples;Min_cycle;Max_cycle;Signal;HPM_P1;HPM_P2
2023/01/08 00:02:01;;;;;;;17.43;16.23;;;8.30;85.90;;;;;;5013330;28;20670;-91
2023/01/08 00:04:26;;;;;;;16.90;15.60;;;8.20;86.00;;;;;;4993813;28;20647;-91
2023/01/08 00:07:10;;;;;;;17.40;16.00;;;8.30;86.00;;;;;;5452864;23;20221;-90
2023/01/08 00:10:14;;;;;;;17.27;16.17;;;8.30;85.80;;;;;;4994361;28;20186;-92
2023/01/08 00:16:23;;;;;;;16.47;15.37;;;8.30;85.70;;;;;;4921851;28;20232;-91
2023/01/08 00:19:48;;;;;;;14.70;13.60;;;8.30;85.70;;;;;;4993488;28;20225;-91
2023/01/08 00:27:40;;;;;;;13.90;13.00;;;8.50;84.50;;;;;;4992815;28;20272;-90
2023/01/08 00:34:05;;;;;;;14.00;13.10;;;8.80;83.40;;;;;;5346914;22;20240;-90
2023/01/08 00:40:07;;;;;;;14.90;13.90;;;8.90;83.10;;;;;;4993924;28;20169;-90
2023/01/08 00:42:45;;;;;;;15.83;14.67;;;8.80;83.70;;;;;;4993005;28;20194;-91
2023/01/08 00:49:09;;;;;;;15.47;14.27;;;8.70;83.80;;;;;;4960485;28;20198;-90
2023/01/08 00:57:04;;;;;;;15.30;14.13;;;8.70;84.00;;;;;;5210918;22;20237;-91
2023/01/08 00:59:30;;;;;;;15.90;14.80;;;8.80;83.90;;;;;;4997069;28;20178;-92
2023/01/08 01:01:55;;;;;;;15.10;14.10;;;8.70;84.20;;;;;;4997067;28;20217;-91
2023/01/08 01:04:21;;;;;;;14.33;13.33;;;8.80;83.90;;;;;;4997394;28;20196;-91
2023/01/08 01:06:46;;;;;;;14.93;13.73;;;8.80;83.90;;;;;;4996774;28;20186;-91
2023/01/08 01:09:12;;;;;;;15.70;14.50;;;8.80;83.70;;;;;;4996705;28;20174;-91
2023/01/08 01:11:38;;;;;;;15.53;14.47;;;8.80;83.90;;;;;;4996553;28;20276;-91
2023/01/08 01:14:03;;;;;;;15.90;14.80;;;8.80;84.10;;;;;;4996731;28;20198;-91
2023/01/08 01:16:29;;;;;;;16.70;14.93;;;8.70;84.40;;;;;;4996639;28;20189;-91
2023/01/08 01:18:56;;;;;;;16.50;15.30;;;8.70;84.80;;;;;;4996580;28;20202;-91
2023/01/08 01:21:25;;;;;;;15.83;14.70;;;8.60;84.90;;;;;;4996430;28;20186;-91
2023/01/08 01:23:56;;;;;;;16.20;15.00;;;8.60;84.80;;;;;;4996982;28;20205;-92
2023/01/08 01:26:23;;;;;;;15.67;14.63;;;8.70;84.50;;;;;;4996434;28;20201;-91
2023/01/08 01:28:50;;;;;;;15.50;14.50;;;8.70;84.70;;;;;;4996506;28;20178;-91
2023/01/08 01:31:17;;;;;;;15.87;14.87;;;8.70;84.80;;;;;;4996290;28;20205;-91
2023/01/08 01:33:43;;;;;;;15.37;14.30;;;8.70;84.80;;;;;;4996795;28;20206;-91
2023/01/08 01:36:10;;;;;;;15.87;14.77;;;8.80;84.40;;;;;;4996198;28;20185;-92
2023/01/08 01:38:35;;;;;;;15.60;14.60;;;8.80;84.60;;;;;;4996190;28;20210;-92
2023/01/08 01:41:01;;;;;;;16.23;15.17;;;8.80;84.60;;;;;;4996031;28;20670;-91
2023/01/08 01:43:41;;;;;;;16.40;15.17;;;8.80;84.70;;;;;;4996018;28;20190;-92
2023/01/08 01:46:35;;;;;;;15.83;14.83;;;8.70;84.90;;;;;;4996118;28;20177;-91
2023/01/08 01:49:07;;;;;;;15.70;14.60;;;8.80;85.10;;;;;;4988495;28;20193;-91
2023/01/08 01:51:34;;;;;;;15.60;14.50;;;8.80;84.70;;;;;;4996684;28;20198;-91
2023/01/08 01:54:02;;;;;;;16.50;15.20;;;8.80;84.90;;;;;;4995714;28;20198;-91
2023/01/08 01:56:29;;;;;;;15.93;14.67;;;8.80;85.00;;;;;;4995982;28;20200;-91
2023/01/08 01:58:55;;;;;;;16.07;14.97;;;8.80;85.10;;;;;;4995513;28;20202;-91
2023/01/08 02:01:22;;;;;;;15.80;14.60;;;8.80;85.10;;;;;;4995649;28;20592;-91
2023/01/08 02:03:47;;;;;;;16.27;15.07;;;8.80;85.30;;;;;;4995661;28;20197;-91
2023/01/08 02:06:36;;;;;;;18.90;17.03;;;8.70;85.30;;;;;;4995540;28;20170;-92
2023/01/08 02:09:27;;;;;;;17.90;16.50;;;8.70;85.40;;;;;;4995771;28;20167;-92
2023/01/08 02:12:16;;;;;;;19.13;17.63;;;8.80;85.50;;;;;;4995833;28;20171;-91
2023/01/08 02:15:00;;;;;;;18.10;16.80;;;8.70;85.60;;;;;;4995794;28;20162;-92
2023/01/08 02:18:32;;;;;;;17.43;16.03;;;8.70;85.60;;;;;;4995716;28;20204;-91
2023/01/08 02:21:05;;;;;;;16.90;15.70;;;8.80;85.60;;;;;;4960182;28;20186;-92
2023/01/08 02:23:45;;;;;;;15.67;14.60;;;8.70;85.70;;;;;;4995626;28;20194;-92
2023/01/08 02:26:16;;;;;;;15.47;14.47;;;8.70;85.60;;;;;;4995478;28;20236;-91
2023/01/08 02:28:47;;;;;;;14.93;14.03;;;8.70;85.60;;;;;;4995644;28;20193;-92
2023/01/08 02:31:15;;;;;;;15.50;14.43;;;8.70;85.60;;;;;;4995210;28;20228;-92
2023/01/08 02:33:41;;;;;;;16.37;15.27;;;8.80;85.50;;;;;;4995224;28;20201;-91
2023/01/08 02:36:27;;;;;;;15.57;14.57;;;8.70;85.90;;;;;;4995178;28;20310;-91
2023/01/08 02:39:00;;;;;;;16.70;15.40;;;8.70;86.00;;;;;;4996227;28;20230;-92
2023/01/08 02:41:44;;;;;;;15.97;14.87;;;8.60;86.10;;;;;;4995885;28;20170;-91
2023/01/08 02:44:14;;;;;;;16.03;14.87;;;8.60;86.40;;;;;;4994931;28;20214;-91
2023/01/08 02:46:41;;;;;;;17.40;15.97;;;8.60;86.20;;;;;;4995011;28;20206;-92
2023/01/08 02:49:10;;;;;;;17.00;15.80;;;8.40;86.50;;;;;;4994990;28;20178;-92
2023/01/08 02:51:45;;;;;;;17.30;16.10;;;8.40;86.80;;;;;;4995099;28;20586;-92
2023/01/08 02:54:16;;;;;;;17.90;16.60;;;8.40;86.90;;;;;;4995468;28;20304;-92
2023/01/08 02:56:46;;;;;;;17.93;16.73;;;8.30;87.00;;;;;;4994466;28;20262;-92
2023/01/08 02:59:14;;;;;;;18.53;17.23;;;8.30;87.00;;;;;;4994603;28;20242;-92
2023/01/08 03:01:41;;;;;;;17.80;16.60;;;8.30;87.30;;;;;;4994694;28;20174;-92
2023/01/08 03:04:12;;;;;;;18.23;17.00;;;8.30;87.20;;;;;;4994743;28;20198;-92
2023/01/08 03:06:38;;;;;;;17.87;16.67;;;8.30;87.20;;;;;;4994568;28;20163;-92
2023/01/08 03:09:05;;;;;;;18.50;17.20;;;8.30;87.40;;;;;;4994449;28;20174;-91
2023/01/08 03:12:01;;;;;;;20.07;18.00;;;8.30;87.40;;;;;;4994623;28;20202;-92
2023/01/08 03:14:35;;;;;;;19.87;18.57;;;8.20;87.60;;;;;;4988378;28;20182;-91
2023/01/08 03:17:11;;;;;;;20.07;18.67;;;8.20;87.70;;;;;;4994326;28;20276;-91
2023/01/08 03:19:41;;;;;;;20.93;19.43;;;8.10;87.90;;;;;;4993843;28;20628;-92
2023/01/08 03:22:12;;;;;;;20.83;19.50;;;8.10;88.30;;;;;;4994238;28;20158;-92
2023/01/08 03:24:39;;;;;;;20.17;18.77;;;8.10;88.40;;;;;;4994326;28;20169;-91
2023/01/08 03:27:09;;;;;;;19.97;18.17;;;8.10;88.40;;;;;;4994289;28;20181;-91
2023/01/08 03:29:36;;;;;;;19.53;18.23;;;8.00;88.50;;;;;;4994201;28;20548;-92
2023/01/08 03:32:05;;;;;;;19.57;18.27;;;8.00;88.60;;;;;;4994020;28;20265;-92
2023/01/08 03:34:34;;;;;;;20.40;18.87;;;7.90;88.70;;;;;;4994190;28;20189;-92
2023/01/08 03:37:03;;;;;;;20.10;18.73;;;8.00;88.80;;;;;;4993968;28;20198;-92
2023/01/08 03:39:36;;;;;;;19.90;18.50;;;8.00;88.70;;;;;;4994254;28;20640;-92
2023/01/08 03:42:06;;;;;;;19.37;18.03;;;8.00;88.80;;;;;;4993869;28;20261;-92
2023/01/08 03:44:32;;;;;;;19.90;18.60;;;8.10;88.80;;;;;;4994055;28;20265;-92
2023/01/08 03:46:57;;;;;;;20.03;18.73;;;8.20;88.80;;;;;;4994231;28;20679;-92
2023/01/08 03:49:27;;;;;;;20.33;18.93;;;8.20;88.80;;;;;;4994680;28;20182;-92
2023/01/08 03:51:52;;;;;;;20.40;18.90;;;8.20;88.90;;;;;;4993955;28;20644;-92
2023/01/08 03:54:22;;;;;;;19.30;18.03;;;8.20;88.60;;;;;;4993762;28;20197;-92
2023/01/08 03:56:48;;;;;;;18.47;17.27;;;8.30;88.60;;;;;;4993502;28;20198;-92
2023/01/08 03:59:15;;;;;;;17.53;16.40;;;8.30;88.30;;;;;;4993618;28;20178;-91
2023/01/08 04:01:40;;;;;;;18.10;16.57;;;8.30;88.20;;;;;;4993467;28;20209;-92
2023/01/08 04:04:07;;;;;;;18.40;17.20;;;8.30;88.00;;;;;;4993499;28;20205;-92
2023/01/08 04:06:32;;;;;;;17.90;16.70;;;8.40;88.10;;;;;;4993525;28;20177;-92
2023/01/08 04:08:58;;;;;;;18.37;16.97;;;8.40;88.00;;;;;;4994052;28;20173;-92
2023/01/08 04:11:24;;;;;;;18.23;16.97;;;8.30;88.10;;;;;;4993533;28;20652;-92
2023/01/08 04:13:50;;;;;;;19.03;17.50;;;8.30;88.10;;;;;;4993527;28;20629;-92
2023/01/08 04:16:15;;;;;;;19.40;18.20;;;8.30;88.30;;;;;;4993504;28;20236;-92
2023/01/08 04:18:41;;;;;;;18.10;17.00;;;8.30;88.30;;;;;;4993329;28;20213;-92
2023/01/08 04:21:06;;;;;;;20.27;18.87;;;8.20;88.40;;;;;;4993372;28;20185;-92
2023/01/08 04:23:32;;;;;;;19.37;17.87;;;8.20;88.50;;;;;;4993393;28;20194;-91
2023/01/08 04:25:57;;;;;;;19.47;18.17;;;8.20;88.50;;;;;;4993384;28;20209;-92
2023/01/08 04:28:23;;;;;;;20.03;18.47;;;8.20;88.50;;;;;;4993228;28;20189;-92
2023/01/08 04:30:49;;;;;;;20.23;18.63;;;8.20;88.60;;;;;;4993121;28;20178;-91
2023/01/08 04:33:15;;;;;;;20.77;19.47;;;8.10;88.60;;;;;;4993259;28;20198;-91
2023/01/08 04:35:41;;;;;;;20.93;19.63;;;8.10;88.80;;;;;;4993297;28;20614;-92
2023/01/08 04:38:06;;;;;;;21.07;19.77;;;8.00;88.90;;;;;;4994391;28;20202;-91
2023/01/08 04:40:33;;;;;;;21.27;19.90;;;8.10;89.10;;;;;;4993701;28;20178;-92
2023/01/08 04:42:59;;;;;;;21.97;20.23;;;8.00;89.20;;;;;;4993474;28;20200;-92
2023/01/08 04:45:24;;;;;;;21.40;20.00;;;8.00;89.30;;;;;;4993536;28;20663;-92
2023/01/08 04:47:57;;;;;;;21.50;20.00;;;8.00;89.30;;;;;;4993641;28;20186;-91
2023/01/08 04:50:23;;;;;;;21.73;20.33;;;8.00;89.40;;;;;;4993228;28;20236;-91
2023/01/08 04:52:49;;;;;;;23.37;21.77;;;8.00;89.40;;;;;;4992983;28;20206;-91
2023/01/08 04:55:14;;;;;;;22.33;20.93;;;8.00;89.50;;;;;;4992745;28;20181;-91
2023/01/08 04:57:40;;;;;;;23.13;21.43;;;8.00;89.60;;;;;;4993102;28;20244;-91
2023/01/08 05:00:06;;;;;;;22.93;21.33;;;8.00;89.60;;;;;;4992850;28;20181;-91
2023/01/08 05:02:32;;;;;;;23.43;21.83;;;8.00;89.60;;;;;;4992943;28;20225;-91
2023/01/08 05:04:58;;;;;;;22.93;21.53;;;8.00;89.60;;;;;;4993775;28;20197;-92
2023/01/08 05:07:24;;;;;;;21.93;20.10;;;8.00;89.60;;;;;;4992913;28;20182;-91
2023/01/08 05:09:49;;;;;;;23.67;22.00;;;8.00;89.50;;;;;;4992831;28;20205;-91
2023/01/08 05:12:15;;;;;;;22.20;20.80;;;7.90;89.50;;;;;;4993131;28;20635;-91
2023/01/08 05:14:41;;;;;;;22.60;21.10;;;7.90;89.60;;;;;;4993770;28;20301;-91
2023/01/08 05:17:07;;;;;;;22.53;20.93;;;8.00;89.50;;;;;;4992765;28;20638;-91
2023/01/08 05:19:32;;;;;;;22.57;21.00;;;7.90;89.50;;;;;;4992872;28;20675;-91
2023/01/08 05:21:58;;;;;;;22.73;21.13;;;7.90;89.50;;;;;;4992869;28;20625;-91
2023/01/08 05:24:23;;;;;;;23.00;21.60;;;7.90;89.40;;;;;;4992795;28;20179;-91
2023/01/08 05:26:49;;;;;;;21.77;20.33;;;7.90;89.50;;;;;;4992719;28;20648;-91
2023/01/08 05:29:15;;;;;;;22.67;21.17;;;7.80;89.50;;;;;;4992744;28;20217;-91
2023/01/08 05:31:40;;;;;;;23.30;21.70;;;7.80;89.60;;;;;;4992908;28;20181;-91
2023/01/08 05:34:06;;;;;;;22.43;20.87;;;7.80;89.60;;;;;;4992690;28;20247;-91
2023/01/08 05:36:31;;;;;;;23.13;21.63;;;7.80;89.70;;;;;;4992635;28;20268;-91
2023/01/08 05:38:57;;;;;;;23.10;21.60;;;7.80;89.80;;;;;;4992582;28;20209;-91
2023/01/08 05:41:22;;;;;;;22.73;21.33;;;7.80;89.80;;;;;;4993726;28;20181;-91
2023/01/08 05:43:48;;;;;;;23.77;22.17;;;7.80;89.90;;;;;;4994451;28;20194;-91
2023/01/08 05:46:13;;;;;;;23.23;21.73;;;7.80;89.90;;;;;;4996056;28;20726;-91
2023/01/08 05:48:39;;;;;;;23.80;22.20;;;7.80;89.90;;;;;;4996447;28;20189;-91
2023/01/08 05:51:05;;;;;;;23.80;22.20;;;7.80;89.90;;;;;;4995997;28;20644;-91
2023/01/08 05:53:31;;;;;;;23.57;22.03;;;7.80;90.00;;;;;;4996972;28;20200;-91
2023/01/08 05:56:01;;;;;;;23.87;22.27;;;7.80;90.00;;;;;;4995812;28;20638;-91
2023/01/08 05:58:27;;;;;;;23.27;21.73;;;7.90;90.00;;;;;;4995866;28;20637;-91
2023/01/08 06:00:54;;;;;;;23.97;22.20;;;7.90;89.90;;;;;;4996058;28;20182;-91
2023/01/08 06:03:22;;;;;;;22.87;21.33;;;7.90;90.00;;;;;;4995713;28;20205;-91
2023/01/08 06:05:48;;;;;;;22.77;21.03;;;8.00;89.90;;;;;;4995737;28;20233;-91
2023/01/08 06:08:15;;;;;;;24.00;22.30;;;7.90;89.90;;;;;;4995797;28;20182;-91
2023/01/08 06:10:40;;;;;;;24.50;22.87;;;7.90;90.00;;;;;;4996445;28;20181;-91
2023/01/08 06:13:07;;;;;;;22.87;21.27;;;7.90;90.00;;;;;;4996072;28;20244;-91
2023/01/08 06:15:33;;;;;;;25.03;22.97;;;7.90;90.00;;;;;;4995718;28;20182;-92
2023/01/08 06:18:02;;;;;;;22.63;21.13;;;7.90;90.10;;;;;;4995376;28;20202;-92
2023/01/08 06:20:27;;;;;;;22.43;20.97;;;8.00;90.10;;;;;;4995765;28;20179;-91
2023/01/08 06:22:53;;;;;;;23.60;21.90;;;8.00;90.10;;;;;;4995527;28;20193;-92
2023/01/08 06:25:19;;;;;;;22.33;20.83;;;8.00;90.00;;;;;;4995488;28;20181;-92
2023/01/08 06:27:49;;;;;;;21.30;19.90;;;8.00;90.00;;;;;;4995363;28;20192;-92
2023/01/08 06:30:14;;;;;;;21.73;20.20;;;8.00;90.00;;;;;;4995509;28;20189;-92
2023/01/08 06:32:40;;;;;;;22.23;20.83;;;8.00;89.90;;;;;;4995217;28;20285;-92
2023/01/08 06:35:06;;;;;;;23.20;21.50;;;8.10;89.90;;;;;;4995100;28;20218;-92
2023/01/08 06:37:31;;;;;;;23.40;21.80;;;8.10;89.90;;;;;;4995344;28;20206;-93
2023/01/08 06:39:57;;;;;;;23.90;21.97;;;8.10;89.90;;;;;;4994932;28;20660;-92
2023/01/08 06:42:22;;;;;;;22.03;20.57;;;8.10;89.80;;;;;;4995148;28;20197;-91
2023/01/08 06:44:48;;;;;;;22.83;21.33;;;8.10;89.90;;;;;;4995883;28;20652;-92
2023/01/08 06:47:13;;;;;;;22.63;21.10;;;8.20;89.80;;;;;;4994985;28;20178;-92
2023/01/08 06:49:39;;;;;;;23.50;21.90;;;8.20;89.70;;;;;;4995115;28;20603;-92
2023/01/08 06:52:04;;;;;;;22.93;21.43;;;8.10;89.70;;;;;;4994661;28;20174;-92
2023/01/08 06:54:30;;;;;;;23.97;22.47;;;8.20;89.80;;;;;;4994144;28;20178;-92
2023/01/08 06:56:56;;;;;;;22.60;21.10;;;8.20;89.80;;;;;;4994547;28;20276;-92
2023/01/08 06:59:21;;;;;;;23.43;21.93;;;8.20;89.80;;;;;;4995249;28;20191;-92
2023/01/08 07:01:47;;;;;;;22.73;21.33;;;8.20;89.80;;;;;;4995540;28;20174;-92
2023/01/08 07:04:12;;;;;;;22.57;21.17;;;8.20;89.90;;;;;;4995362;28;20225;-92
2023/01/08 07:06:38;;;;;;;23.33;21.70;;;8.20;89.80;;;;;;4995471;28;20170;-92
2023/01/08 07:09:04;;;;;;;22.27;20.87;;;8.20;89.90;;;;;;4995967;28;20644;-92
2023/01/08 07:11:29;;;;;;;25.13;23.53;;;8.20;89.90;;;;;;4995056;28;20272;-92
2023/01/08 07:13:55;;;;;;;24.43;22.83;;;8.20;90.00;;;;;;4994950;28;20256;-91
2023/01/08 07:16:21;;;;;;;25.00;23.30;;;8.20;90.10;;;;;;5003204;28;20207;-91
2023/01/08 07:18:46;;;;;;;25.73;23.90;;;8.20;90.30;;;;;;4994929;28;20248;-92
2023/01/08 07:21:12;;;;;;;24.60;23.10;;;8.20;90.40;;;;;;4994762;28;20209;-91
2023/01/08 07:23:38;;;;;;;26.37;24.57;;;8.10;90.40;;;;;;4994423;28;20220;-92
2023/01/08 07:26:06;;;;;;;25.00;23.37;;;8.10;90.50;;;;;;4994571;28;20177;-92
2023/01/08 07:28:32;;;;;;;26.33;24.63;;;8.10;90.70;;;;;;4994264;28;20186;-92
2023/01/08 07:31:02;;;;;;;27.90;25.83;;;8.00;90.70;;;;;;4994483;28;20240;-91
2023/01/08 07:33:27;;;;;;;27.57;25.77;;;8.00;90.70;;;;;;4994359;28;20228;-91
2023/01/08 07:35:54;;;;;;;29.20;27.10;;;8.10;90.80;;;;;;4994030;28;20268;-91
2023/01/08 07:38:19;;;;;;;27.70;25.90;;;8.10;90.80;;;;;;4994912;28;20197;-91
2023/01/08 07:40:45;;;;;;;26.67;25.07;;;8.10;90.90;;;;;;4994044;28;20240;-91
2023/01/08 07:43:13;;;;;;;27.57;25.87;;;8.10;90.80;;;;;;4993897;28;20202;-91
2023/01/08 07:45:40;;;;;;;26.57;25.03;;;8.10;90.80;;;;;;4993722;28;20249;-91
2023/01/08 07:48:05;;;;;;;26.80;25.10;;;8.20;90.90;;;;;;4994550;28;20237;-91
2023/01/08 07:50:31;;;;;;;26.70;25.03;;;8.20;90.90;;;;;;4993849;28;20182;-91
2023/01/08 07:53:00;;;;;;;27.40;25.57;;;8.20;90.80;;;;;;4993739;28;20253;-92
2023/01/08 07:55:27;;;;;;;27.80;26.00;;;8.30;90.80;;;;;;4994039;28;20244;-92
2023/01/08 07:57:53;;;;;;;28.87;26.87;;;8.30;90.80;;;;;;4993760;28;20751;-91
2023/01/08 08:00:18;;;;;;;31.63;29.53;;;8.30;91.00;;;;;;4994023;28;20217;-91
2023/01/08 08:02:44;;;;;;;31.33;29.13;;;8.20;91.30;;;;;;4993455;28;20209;-91
2023/01/08 08:05:10;;;;;;;31.67;29.67;;;8.20;91.40;;;;;;4993868;28;20637;-91
2023/01/08 08:07:35;;;;;;;33.23;30.83;;;8.20;91.70;;;;;;4993401;28;20203;-91
2023/01/08 08:10:02;;;;;;;32.63;30.53;;;8.10;91.80;;;;;;4994040;28;20283;-90
2023/01/08 08:12:28;;;;;;;36.30;34.00;;;8.20;92.00;;;;;;4994009;28;20205;-91
2023/01/08 08:14:53;;;;;;;36.00;33.67;;;8.20;92.20;;;;;;4993210;28;20193;-91
2023/01/08 08:17:19;;;;;;;36.97;34.43;;;8.20;92.20;;;;;;4996866;28;20213;-91
2023/01/08 08:19:44;;;;;;;35.37;33.20;;;8.20;92.30;;;;;;4993964;28;20181;-90
2023/01/08 08:22:12;;;;;;;38.43;36.03;;;8.20;92.40;;;;;;4993115;28;20177;-91
2023/01/08 08:24:38;;;;;;;40.10;37.60;;;8.20;92.40;;;;;;4993342;28;20683;-91
2023/01/08 08:27:04;;;;;;;40.43;37.73;;;8.20;92.50;;;;;;4993594;28;20174;-91
2023/01/08 08:29:29;;;;;;;37.77;35.43;;;8.10;92.60;;;;;;4993139;28;20205;-91
2023/01/08 08:31:55;;;;;;;40.63;38.10;;;8.20;92.60;;;;;;4992990;28;20181;-90
2023/01/08 08:34:21;;;;;;;41.67;38.97;;;8.20;92.60;;;;;;4993524;28;20203;-91
2023/01/08 08:36:47;;;;;;;44.57;41.43;;;8.20;92.80;;;;;;4993357;28;20648;-91
2023/01/08 08:39:13;;;;;;;43.10;40.07;;;8.20;92.80;;;;;;4992843;28;20240;-91
2023/01/08 08:41:39;;;;;;;45.67;42.97;;;8.20;93.00;;;;;;4993170;28;20604;-91
2023/01/08 08:44:04;;;;;;;45.97;42.93;;;8.20;93.20;;;;;;4992856;28;20557;-91
2023/01/08 08:46:30;;;;;;;46.07;43.10;;;8.10;93.30;;;;;;4992890;28;20178;-91
2023/01/08 08:48:56;;;;;;;49.43;46.13;;;8.20;93.30;;;;;;4992740;28;20182;-91
2023/01/08 08:51:21;;;;;;;47.20;43.70;;;8.20;93.40;;;;;;4992753;28;20292;-91
2023/01/08 08:53:47;;;;;;;46.27;43.23;;;8.20;93.40;;;;;;4993131;28;20198;-91
2023/01/08 08:56:12;;;;;;;45.90;42.90;;;8.30;93.40;;;;;;4992722;28;20280;-91
2023/01/08 08:58:40;;;;;;;46.00;43.10;;;8.30;93.50;;;;;;4992786;28;20208;-91
2023/01/08 09:01:07;;;;;;;43.87;41.10;;;8.30;93.50;;;;;;4992918;28;20290;-91
2023/01/08 09:03:33;;;;;;;42.40;39.80;;;8.30;93.50;;;;;;4992678;28;20194;-92
2023/01/08 09:06:05;;;;;;;44.47;41.30;;;8.30;93.40;;;;;;4993009;28;20174;-91
2023/01/08 09:08:30;;;;;;;41.47;38.87;;;8.30;93.40;;;;;;4992736;28;20656;-91
2023/01/08 09:10:56;;;;;;;41.57;38.73;;;8.30;93.40;;;;;;4992575;28;20245;-90
2023/01/08 09:13:21;;;;;;;41.53;39.00;;;8.30;93.30;;;;;;4992271;28;20205;-90
2023/01/08 09:15:47;;;;;;;41.07;38.47;;;8.40;93.30;;;;;;4992541;28;20186;-92
2023/01/08 09:18:13;;;;;;;42.57;39.80;;;8.30;93.30;;;;;;4993446;28;20256;-91
2023/01/08 09:20:38;;;;;;;40.13;37.40;;;8.40;93.30;;;;;;4996459;28;20316;-91
2023/01/08 09:23:04;;;;;;;39.83;37.37;;;8.40;93.30;;;;;;5007325;28;20212;-91
2023/01/08 09:25:30;;;;;;;39.30;36.90;;;8.40;93.30;;;;;;4996440;28;20186;-91
2023/01/08 09:28:01;;;;;;;43.40;40.50;;;8.50;93.30;;;;;;4996425;28;20174;-90
2023/01/08 09:30:26;;;;;;;42.83;40.23;;;8.50;93.30;;;;;;4997791;28;20645;-91
2023/01/08 09:32:56;;;;;;;43.37;40.63;;;8.40;93.30;;;;;;4996375;28;20200;-91
2023/01/08 09:35:22;;;;;;;48.33;45.23;;;8.50;93.30;;;;;;4996452;28;20659;-91
2023/01/08 09:37:51;;;;;;;45.57;42.77;;;8.50;93.30;;;;;;4996123;28;20289;-91
2023/01/08 09:40:18;;;;;;;46.03;42.93;;;8.50;93.20;;;;;;4996221;28;20202;-91
2023/01/08 09:42:52;;;;;;;42.93;40.23;;;8.50;93.20;;;;;;4995944;28;20253;-91
2023/01/08 09:45:25;;;;;;;43.50;40.60;;;8.60;93.00;;;;;;4995912;28;20269;-91
2023/01/08 09:47:51;;;;;;;42.97;39.90;;;8.70;93.00;;;;;;4996232;28;20244;-91
2023/01/08 09:50:17;;;;;;;40.10;37.70;;;8.70;92.90;;;;;;4996123;28;20178;-92
2023/01/08 09:52:43;;;;;;;39.93;37.43;;;8.80;92.70;;;;;;4995834;28;20704;-91
2023/01/08 09:55:13;;;;;;;37.23;34.93;;;8.80;92.60;;;;;;4996025;28;20186;-90
2023/01/08 09:57:38;;;;;;;36.77;34.37;;;8.90;92.40;;;;;;4995686;28;20703;-91
2023/01/08 10:00:21;;;;;;;33.33;31.10;;;9.00;92.20;;;;;;4997015;28;20162;-90
2023/01/08 10:02:47;;;;;;;29.80;27.50;;;9.00;91.90;;;;;;4996802;28;20768;-91
2023/01/08 10:05:16;;;;;;;29.17;27.17;;;9.10;91.60;;;;;;4995694;28;20253;-91
2023/01/08 10:07:41;;;;;;;33.03;30.83;;;9.10;91.60;;;;;;4995431;28;20181;-90
2023/01/08 10:10:24;;;;;;;29.17;27.17;;;9.20;91.70;;;;;;4995525;28;20182;-91
2023/01/08 10:12:50;;;;;;;29.33;27.47;;;9.20;91.50;;;;;;4996324;28;20243;-91
2023/01/08 10:15:18;;;;;;;30.30;28.30;;;9.20;91.50;;;;;;4995585;28;20213;-91
2023/01/08 10:17:53;;;;;;;31.60;29.53;;;9.10;91.50;;;;;;4998508;28;20256;-93
2023/01/08 10:20:23;;;;;;;30.03;28.23;;;9.20;91.40;;;;;;5268126;23;20235;-90
2023/01/08 10:22:52;;;;;;;30.80;28.50;;;9.20;91.30;;;;;;5014820;28;20671;-90
2023/01/08 10:25:24;;;;;;;30.20;28.40;;;9.20;91.30;;;;;;5015978;28;20178;-92
2023/01/08 10:28:03;;;;;;;31.23;29.33;;;9.20;91.30;;;;;;5017118;28;20185;-92
2023/01/08 10:30:38;;;;;;;32.30;30.03;;;9.20;91.40;;;;;;5017365;28;20243;-92
2023/01/08 10:33:09;;;;;;;29.33;27.23;;;9.20;91.40;;;;;;5014648;28;20683;-90
2023/01/08 10:35:38;;;;;;;30.47;28.47;;;9.20;91.20;;;;;;5015019;28;20244;-90
2023/01/08 10:38:04;;;;;;;32.20;30.23;;;9.20;91.30;;;;;;5014689;28;20208;-90
2023/01/08 10:40:46;;;;;;;32.97;30.77;;;9.20;91.40;;;;;;5014518;28;20170;-91
2023/01/08 10:43:21;;;;;;;31.83;29.90;;;9.20;91.40;;;;;;5015197;28;20667;-90
2023/01/08 10:45:59;;;;;;;30.20;28.37;;;9.20;91.30;;;;;;5015357;28;20200;-91
2023/01/08 10:48:39;;;;;;;30.80;28.80;;;9.20;91.20;;;;;;5014413;28;20165;-91
2023/01/08 10:51:11;;;;;;;31.40;29.40;;;9.20;91.20;;;;;;5014514;28;20248;-90
2023/01/08 10:53:39;;;;;;;31.93;29.83;;;9.20;91.20;;;;;;5014307;28;20204;-90
2023/01/08 10:56:05;;;;;;;27.97;26.17;;;9.20;91.20;;;;;;5014107;28;20286;-91
2023/01/08 10:58:41;;;;;;;26.43;24.67;;;9.30;90.90;;;;;;5015916;28;20205;-90
2023/01/08 11:01:27;;;;;;;25.03;23.43;;;9.30;90.80;;;;;;5014176;28;20580;-90
2023/01/08 11:04:00;;;;;;;22.83;21.33;;;9.30;90.80;;;;;;5013890;28;20232;-89
2023/01/08 11:06:28;;;;;;;23.83;22.30;;;9.30;90.60;;;;;;5014831;28;20165;-90
2023/01/08 11:08:58;;;;;;;25.37;23.77;;;9.30;90.70;;;;;;5013996;28;20181;-90
2023/01/08 11:11:36;;;;;;;25.57;23.70;;;9.40;90.50;;;;;;5013921;28;20169;-90
2023/01/08 11:14:05;;;;;;;20.17;18.87;;;9.70;90.60;;;;;;5014658;28;20230;-90
2023/01/08 11:16:36;;;;;;;20.13;18.83;;;9.80;89.50;;;;;;5013806;28;20363;-89
2023/01/08 11:19:03;;;;;;;20.50;19.13;;;9.80;89.30;;;;;;5013775;28;20288;-90
2023/01/08 11:21:30;;;;;;;20.77;19.07;;;9.90;89.10;;;;;;5013599;28;20192;-90
2023/01/08 11:24:19;;;;;;;20.73;19.43;;;9.80;88.90;;;;;;5013770;28;20197;-89
2023/01/08 11:26:55;;;;;;;22.20;20.37;;;9.70;89.00;;;;;;5014013;28;20166;-89
2023/01/08 11:29:37;;;;;;;19.40;18.03;;;9.80;89.20;;;;;;5013759;28;20215;-89
2023/01/08 11:32:29;;;;;;;18.60;17.50;;;9.90;88.80;;;;;;5013732;28;20162;-90
2023/01/08 11:34:54;;;;;;;17.33;16.23;;;9.90;88.30;;;;;;4983781;28;20177;-90
2023/01/08 11:37:23;;;;;;;17.07;15.87;;;10.10;88.10;;;;;;5013318;28;20201;-90
2023/01/08 11:39:50;;;;;;;18.23;17.03;;;10.10;87.80;;;;;;5013487;28;20200;-89
2023/01/08 11:42:37;;;;;;;16.90;15.80;;;10.20;88.30;;;;;;5012772;28;20220;-89
2023/01/08 11:45:25;;;;;;;18.03;16.73;;;10.20;87.50;;;;;;5013225;28;20170;-90
2023/01/08 11:48:06;;;;;;;15.53;14.53;;;10.30;87.40;;;;;;5013839;28;20169;-89
2023/01/08 11:50:54;;;;;;;14.93;14.03;;;10.20;86.60;;;;;;5013147;28;20173;-89
2023/01/08 11:53:30;;;;;;;14.23;13.30;;;10.30;86.30;;;;;;5014843;28;20213;-89
2023/01/08 11:56:39;;;;;;;14.33;13.33;;;10.30;85.80;;;;;;5013143;28;20231;-89
2023/01/08 11:59:35;;;;;;;13.77;12.77;;;10.30;85.50;;;;;;5006081;28;20228;-89
2023/01/08 12:02:26;;;;;;;12.30;11.50;;;10.30;85.50;;;;;;5004981;28;20216;-88
2023/01/08 12:05:17;;;;;;;13.23;12.23;;;10.40;84.70;;;;;;5013071;28;20220;-90
2023/01/08 12:07:56;;;;;;;13.20;12.30;;;10.50;85.40;;;;;;5013852;28;20643;-89
2023/01/08 12:10:32;;;;;;;12.90;11.90;;;10.30;84.50;;;;;;5012882;28;20165;-89
2023/01/08 12:13:10;;;;;;;12.07;11.27;;;10.30;84.20;;;;;;5012596;28;20200;-89
2023/01/08 12:15:57;;;;;;;12.70;11.60;;;10.30;84.30;;;;;;5012826;28;20252;-89
2023/01/08 12:18:28;;;;;;;12.13;11.23;;;10.50;84.10;;;;;;5012668;28;20284;-90
2023/01/08 12:21:15;;;;;;;12.07;10.90;;;10.40;83.10;;;;;;5013155;28;20260;-91
2023/01/08 12:24:08;;;;;;;13.43;12.43;;;10.50;82.60;;;;;;5012505;28;20717;-88
2023/01/08 12:27:00;;;;;;;12.10;11.33;;;10.60;83.20;;;;;;4982757;28;20213;-89
2023/01/08 12:29:40;;;;;;;12.20;11.20;;;10.50;82.20;;;;;;5012628;28;20213;-88
2023/01/08 12:32:17;;;;;;;13.00;11.93;;;10.50;81.90;;;;;;5012484;28;20162;-89
2023/01/08 12:34:48;;;;;;;12.60;11.50;;;10.60;81.80;;;;;;5012566;28;20157;-89
2023/01/08 12:37:22;;;;;;;12.20;11.03;;;10.60;81.20;;;;;;5012366;28;20193;-89
2023/01/08 12:39:59;;;;;;;12.10;11.20;;;10.60;81.00;;;;;;5012491;28;20162;-89
2023/01/08 12:42:31;;;;;;;12.60;11.77;;;10.70;80.80;;;;;;5012475;28;20197;-91
2023/01/08 12:44:59;;;;;;;12.43;11.43;;;10.80;80.90;;;;;;5012454;28;20183;-90
2023/01/08 12:47:31;;;;;;;12.40;11.57;;;10.80;80.50;;;;;;5012256;28;20678;-89
2023/01/08 12:50:15;;;;;;;15.93;13.73;;;10.70;79.70;;;;;;5012487;28;20170;-90
2023/01/08 12:52:54;;;;;;;17.27;11.40;;;10.70;79.20;;;;;;5011250;28;20197;-90
2023/01/08 12:55:45;;;;;;;12.03;11.13;;;10.70;79.70;;;;;;5012352;28;20169;-90
2023/01/08 12:58:22;;;;;;;12.27;11.47;;;10.80;78.50;;;;;;5017298;28;20291;-92
2023/01/08 13:01:02;;;;;;;12.63;11.53;;;10.70;78.20;;;;;;5015333;28;20164;-90
2023/01/08 13:03:28;;;;;;;12.30;11.60;;;10.80;78.80;;;;;;5012109;28;20200;-89
2023/01/08 13:06:06;;;;;;;12.50;11.60;;;10.70;77.90;;;;;;5012895;28;20177;-90
2023/01/08 13:08:34;;;;;;;12.67;11.80;;;10.70;77.50;;;;;;5012539;28;20166;-90
2023/01/08 13:11:01;;;;;;;13.10;12.13;;;10.60;77.50;;;;;;5012127;28;20173;-90
2023/01/08 13:13:30;;;;;;;11.97;11.07;;;10.60;77.20;;;;;;5013365;28;20193;-90
2023/01/08 13:16:30;;;;;;;12.87;12.10;;;10.60;78.50;;;;;;5013271;28;20178;-90
2023/01/08 13:19:01;;;;;;;11.63;10.93;;;10.60;77.30;;;;;;5001192;28;20241;-90